Roy, Louisiana
Current Conditions -  °F | °C
As of 2:36 AM on Sunday 23 Nov 2014 (Local Time) from KMNE Reporting Station
Heavy Rain Heavy Rain  
Wind Chill: 61°   Ceiling: 400
Heat Index: 61°   Visibility: 4mi
Dew Point: 59°   Wind: 3mph
Humidity: 94%   Direction: 120°ESE
Pressure: 29.73"   Gusts: NA
Location:  32.2628°N, 93.0795°W
Report Text: KMNE 230836Z AUTO 12003KT 4SM +RA OVC004 16/15 A2973 RMK AO2 P0007
Loading
Personal Weather Stations






























Interactive Weather Map New forecast layout! Learn more

10-Day Weather Forecast

Advertisements
Track Severe Weather on mobile